Time;durP1;ratioP1;P1;durP2;ratioP2;P2;SDS_P1;SDS_P2;PMS_P1;PMS_P2;Temp;Humidity;BMP_temperature;BMP_pressure;BME280_temperature;BME280_humidity;BME280_pressure;Samples;Min_cycle;Max_cycle;Signal;HPM_P1;HPM_P2
2023/05/26 00:00:41;;;;;;;6.45;3.13;;;19.10;54.30;;;;;;5095610;28;20553;-67
2023/05/26 00:03:07;;;;;;;6.13;3.28;;;19.00;54.20;;;;;;5094648;28;20638;-67
2023/05/26 00:05:35;;;;;;;8.02;3.78;;;19.10;54.30;;;;;;5095569;28;20236;-67
2023/05/26 00:08:00;;;;;;;9.05;3.08;;;19.10;54.20;;;;;;5095491;28;20530;-67
2023/05/26 00:10:26;;;;;;;9.43;3.75;;;19.00;54.30;;;;;;5094194;28;20256;-66
2023/05/26 00:12:51;;;;;;;7.30;3.13;;;19.00;54.20;;;;;;5095735;28;20544;-65
2023/05/26 00:15:17;;;;;;;10.85;3.05;;;19.00;54.30;;;;;;5095162;28;20170;-65
2023/05/26 00:17:43;;;;;;;7.15;3.40;;;19.00;54.20;;;;;;5094632;28;20209;-66
2023/05/26 00:20:10;;;;;;;7.13;3.17;;;19.00;54.30;;;;;;5093799;28;20664;-66
2023/05/26 00:22:36;;;;;;;10.52;3.50;;;19.00;54.20;;;;;;5095175;28;20659;-66
2023/05/26 00:25:03;;;;;;;7.85;3.53;;;19.00;54.20;;;;;;5094656;28;20177;-66
2023/05/26 00:27:28;;;;;;;8.82;3.42;;;19.00;54.30;;;;;;5094973;28;20677;-66
2023/05/26 00:29:54;;;;;;;8.32;3.78;;;19.00;54.30;;;;;;5095161;28;20260;-67
2023/05/26 00:32:19;;;;;;;7.43;3.72;;;19.00;54.30;;;;;;5094141;28;20174;-67
2023/05/26 00:34:45;;;;;;;7.90;3.22;;;19.00;54.30;;;;;;5095001;28;20311;-66
2023/05/26 00:37:10;;;;;;;10.15;3.83;;;19.00;54.20;;;;;;5094496;28;20253;-67
2023/05/26 00:39:36;;;;;;;8.25;3.60;;;18.90;54.30;;;;;;5094187;28;20251;-66
2023/05/26 00:42:05;;;;;;;13.68;3.95;;;18.90;54.20;;;;;;5094775;28;20192;-68
2023/05/26 00:44:30;;;;;;;6.57;3.22;;;19.00;54.20;;;;;;5093986;28;20549;-67
2023/05/26 00:46:56;;;;;;;6.70;3.22;;;18.90;54.20;;;;;;5093277;28;20209;-67
2023/05/26 00:49:21;;;;;;;10.02;3.45;;;18.90;54.20;;;;;;5094318;28;20177;-67
2023/05/26 00:51:47;;;;;;;9.43;4.07;;;18.90;54.20;;;;;;5094023;28;20177;-66
2023/05/26 00:54:13;;;;;;;8.77;3.55;;;18.90;54.20;;;;;;5093266;28;20624;-67
2023/05/26 00:56:39;;;;;;;8.30;3.78;;;18.90;54.20;;;;;;5094486;28;20192;-66
2023/05/26 00:59:04;;;;;;;7.97;3.20;;;18.90;54.20;;;;;;5092541;28;20173;-66
2023/05/26 01:01:31;;;;;;;7.93;3.45;;;18.90;54.20;;;;;;5094243;28;20595;-66
2023/05/26 01:03:56;;;;;;;8.93;3.78;;;18.90;54.20;;;;;;5094291;28;20181;-67
2023/05/26 01:06:22;;;;;;;6.60;3.25;;;18.90;54.20;;;;;;5092338;28;20209;-67
2023/05/26 01:08:48;;;;;;;10.52;3.58;;;18.90;54.20;;;;;;5094157;28;20252;-66
2023/05/26 01:11:25;;;;;;;7.85;3.45;;;18.80;54.10;;;;;;5093717;28;20683;-66
2023/05/26 01:14:01;;;;;;;5.90;2.97;;;18.80;54.10;;;;;;5092563;28;20204;-65
2023/05/26 01:16:29;;;;;;;8.25;3.50;;;18.80;54.10;;;;;;5092105;28;20265;-66
2023/05/26 01:18:58;;;;;;;10.02;3.75;;;18.80;54.10;;;;;;5094370;28;20178;-66
2023/05/26 01:21:24;;;;;;;7.40;2.92;;;18.80;54.20;;;;;;5091752;28;20178;-65
2023/05/26 01:24:11;;;;;;;8.23;3.58;;;18.80;54.20;;;;;;5092610;28;20173;-65
2023/05/26 01:26:56;;;;;;;8.93;3.30;;;18.80;54.10;;;;;;5093935;28;20225;-66
2023/05/26 01:29:22;;;;;;;7.47;3.38;;;18.80;54.20;;;;;;5092900;28;20166;-66
2023/05/26 01:31:47;;;;;;;8.98;3.78;;;18.80;54.10;;;;;;5093742;28;20576;-66
2023/05/26 01:34:13;;;;;;;9.77;3.95;;;18.80;54.20;;;;;;5092894;28;20174;-67
2023/05/26 01:36:38;;;;;;;10.25;4.05;;;18.80;54.10;;;;;;5093523;28;20221;-66
2023/05/26 01:39:04;;;;;;;8.43;2.83;;;18.80;54.20;;;;;;5093787;28;20182;-66
2023/05/26 01:41:54;;;;;;;9.07;3.47;;;18.80;54.10;;;;;;5092006;28;20223;-66
2023/05/26 01:44:28;;;;;;;6.10;2.95;;;18.80;54.30;;;;;;5092298;28;20700;-67
2023/05/26 01:46:54;;;;;;;10.60;3.95;;;18.80;54.20;;;;;;5093557;28;20354;-67
2023/05/26 01:49:21;;;;;;;9.35;3.95;;;18.80;54.20;;;;;;5091543;28;20260;-67
2023/05/26 01:52:08;;;;;;;9.75;3.58;;;18.70;54.10;;;;;;5093455;28;20552;-66
2023/05/26 01:54:34;;;;;;;8.77;3.97;;;18.80;54.10;;;;;;5092577;28;20307;-65
2023/05/26 01:57:00;;;;;;;8.57;3.42;;;18.70;54.10;;;;;;5091676;28;20178;-66
2023/05/26 01:59:25;;;;;;;6.90;3.05;;;18.70;54.20;;;;;;5092003;28;20177;-66
2023/05/26 02:01:51;;;;;;;9.25;3.47;;;18.80;54.20;;;;;;5091630;28;20256;-67
2023/05/26 02:04:16;;;;;;;10.43;3.45;;;18.70;54.10;;;;;;5092969;28;20295;-66
2023/05/26 02:06:42;;;;;;;8.30;3.42;;;18.70;54.10;;;;;;5093310;28;20350;-67
2023/05/26 02:09:07;;;;;;;8.23;3.67;;;18.70;54.20;;;;;;5092436;28;20177;-66
2023/05/26 02:11:33;;;;;;;10.70;3.95;;;18.70;54.10;;;;;;5093519;28;20664;-65
2023/05/26 02:13:59;;;;;;;8.18;3.13;;;18.70;54.10;;;;;;5093289;28;20177;-65
2023/05/26 02:16:27;;;;;;;9.77;4.03;;;18.70;54.10;;;;;;5092215;28;20205;-66
2023/05/26 02:18:53;;;;;;;9.65;3.63;;;18.70;54.10;;;;;;5093110;28;20185;-65
2023/05/26 02:21:18;;;;;;;8.55;3.67;;;18.70;54.20;;;;;;5092829;28;20178;-65
2023/05/26 02:23:44;;;;;;;8.75;3.80;;;18.70;54.30;;;;;;5092539;28;20184;-65
2023/05/26 02:26:10;;;;;;;8.60;3.15;;;18.70;54.30;;;;;;5092820;28;20216;-66
2023/05/26 02:28:39;;;;;;;10.13;3.80;;;18.70;54.40;;;;;;5092854;28;20181;-66
2023/05/26 02:31:05;;;;;;;9.75;3.30;;;18.70;54.40;;;;;;5092030;28;20637;-67
2023/05/26 02:33:31;;;;;;;8.20;3.92;;;18.70;54.40;;;;;;5092742;28;20689;-66
2023/05/26 02:35:56;;;;;;;7.53;3.25;;;18.60;54.20;;;;;;5092980;28;20170;-67
2023/05/26 02:38:22;;;;;;;7.97;3.35;;;18.60;54.30;;;;;;5092170;28;20260;-66
2023/05/26 02:40:49;;;;;;;6.00;2.72;;;18.60;54.30;;;;;;5092862;28;20174;-66
2023/05/26 02:43:15;;;;;;;7.45;3.05;;;18.60;54.50;;;;;;5092562;28;20174;-66
2023/05/26 02:45:40;;;;;;;8.48;3.70;;;18.60;54.70;;;;;;5092136;28;20220;-66
2023/05/26 02:48:06;;;;;;;5.97;2.85;;;18.60;54.40;;;;;;5092448;28;20165;-67
2023/05/26 02:50:31;;;;;;;7.60;3.67;;;18.60;54.30;;;;;;5092953;28;20169;-67
2023/05/26 02:52:57;;;;;;;9.35;3.63;;;18.60;54.50;;;;;;5092334;28;20318;-66
2023/05/26 02:55:24;;;;;;;8.32;3.58;;;18.60;54.50;;;;;;5092452;28;20271;-65
2023/05/26 02:57:51;;;;;;;10.75;4.00;;;18.60;54.60;;;;;;5093014;28;20178;-66
2023/05/26 03:00:17;;;;;;;6.63;3.00;;;18.60;54.50;;;;;;5091757;28;20184;-66
2023/05/26 03:02:43;;;;;;;7.18;3.42;;;18.60;54.50;;;;;;5092643;28;20178;-66
2023/05/26 03:05:08;;;;;;;9.38;4.25;;;18.50;54.30;;;;;;5091830;28;20166;-66
2023/05/26 03:07:34;;;;;;;7.70;3.22;;;18.60;54.50;;;;;;5092511;28;20186;-66
2023/05/26 03:09:59;;;;;;;8.35;3.45;;;18.60;54.60;;;;;;5092572;28;20170;-65
2023/05/26 03:12:25;;;;;;;6.65;3.08;;;18.60;54.60;;;;;;5091490;28;20170;-66
2023/05/26 03:14:50;;;;;;;7.47;3.13;;;18.50;54.50;;;;;;5092601;28;20227;-65
2023/05/26 03:17:16;;;;;;;6.03;2.83;;;18.50;54.40;;;;;;5092155;28;20166;-66
2023/05/26 03:19:42;;;;;;;8.80;3.50;;;18.50;54.40;;;;;;5091756;28;20181;-66
2023/05/26 03:22:07;;;;;;;9.75;3.80;;;18.50;54.60;;;;;;5091998;28;20187;-65
2023/05/26 03:24:33;;;;;;;6.57;3.42;;;18.40;54.60;;;;;;5092659;28;20170;-65
2023/05/26 03:26:58;;;;;;;7.00;2.97;;;18.50;54.50;;;;;;5091778;28;20245;-66
2023/05/26 03:29:24;;;;;;;8.60;2.95;;;18.50;54.70;;;;;;5092247;28;20213;-66
2023/05/26 03:31:49;;;;;;;9.65;3.60;;;18.50;54.60;;;;;;5092333;28;20205;-67
2023/05/26 03:34:17;;;;;;;6.88;3.25;;;18.50;54.80;;;;;;5091346;28;20223;-67
2023/05/26 03:36:45;;;;;;;9.95;3.97;;;18.50;54.60;;;;;;5092325;28;20264;-67
2023/05/26 03:39:10;;;;;;;6.50;3.13;;;18.50;54.60;;;;;;5092148;28;20185;-66
2023/05/26 03:41:36;;;;;;;8.75;3.67;;;18.50;54.90;;;;;;5091735;28;20170;-66
2023/05/26 03:44:01;;;;;;;5.93;3.22;;;18.50;54.80;;;;;;5092361;28;20193;-66
2023/05/26 03:46:27;;;;;;;9.30;3.22;;;18.50;54.80;;;;;;5094439;28;20202;-67
2023/05/26 03:48:52;;;;;;;9.75;3.13;;;18.50;54.60;;;;;;5095541;28;20260;-67
2023/05/26 03:51:18;;;;;;;7.38;2.83;;;18.50;54.60;;;;;;5095830;28;20261;-67
2023/05/26 03:53:43;;;;;;;7.60;3.30;;;18.50;55.40;;;;;;5096081;28;20274;-68
2023/05/26 03:56:09;;;;;;;6.80;2.97;;;18.50;54.80;;;;;;5094821;28;20273;-65
2023/05/26 03:58:34;;;;;;;7.90;3.60;;;18.50;54.70;;;;;;5095746;28;20242;-66
2023/05/26 04:01:00;;;;;;;8.85;3.50;;;18.50;54.80;;;;;;5095649;28;20170;-66
2023/05/26 04:03:26;;;;;;;8.07;3.85;;;18.50;54.70;;;;;;5094620;28;20174;-66
2023/05/26 04:05:52;;;;;;;8.18;3.45;;;18.40;54.70;;;;;;5095569;28;20687;-66
2023/05/26 04:08:17;;;;;;;7.78;3.28;;;18.40;54.60;;;;;;5095024;28;20177;-66
2023/05/26 04:10:43;;;;;;;8.63;3.25;;;18.40;54.80;;;;;;5094939;28;20205;-66
2023/05/26 04:13:08;;;;;;;13.35;3.97;;;18.40;54.60;;;;;;5095257;28;20174;-65
2023/05/26 04:15:34;;;;;;;9.07;3.58;;;18.50;54.60;;;;;;5094627;28;20166;-65
2023/05/26 04:17:59;;;;;;;6.18;2.80;;;18.40;54.70;;;;;;5095646;28;20188;-65
2023/05/26 04:20:25;;;;;;;7.85;3.65;;;18.40;54.70;;;;;;5095187;28;20172;-65
2023/05/26 04:22:51;;;;;;;9.48;3.47;;;18.40;54.70;;;;;;5094661;28;20174;-65
2023/05/26 04:25:16;;;;;;;6.75;3.15;;;18.40;54.70;;;;;;5094719;28;20185;-65
2023/05/26 04:27:42;;;;;;;7.15;3.33;;;18.40;54.60;;;;;;5095221;28;20178;-66
2023/05/26 04:30:09;;;;;;;8.35;3.13;;;18.40;54.60;;;;;;5094061;28;20165;-66
2023/05/26 04:32:35;;;;;;;9.13;3.63;;;18.40;54.60;;;;;;5095621;28;20204;-67
2023/05/26 04:35:01;;;;;;;7.15;3.42;;;18.40;54.60;;;;;;5095103;28;20276;-66
2023/05/26 04:37:26;;;;;;;7.75;3.35;;;18.40;54.50;;;;;;5093916;28;20225;-66
2023/05/26 04:39:53;;;;;;;8.38;3.60;;;18.40;54.60;;;;;;5095014;28;20201;-66
2023/05/26 04:42:19;;;;;;;7.60;3.15;;;18.40;54.70;;;;;;5094275;28;20731;-67
2023/05/26 04:44:45;;;;;;;8.23;3.53;;;18.40;54.60;;;;;;5093894;28;20256;-66
2023/05/26 04:47:11;;;;;;;8.07;3.47;;;18.40;54.60;;;;;;5094461;28;20213;-67
2023/05/26 04:49:37;;;;;;;8.68;3.22;;;18.40;54.70;;;;;;5094630;28;20196;-66
2023/05/26 04:52:02;;;;;;;7.18;3.15;;;18.40;54.50;;;;;;5094116;28;20186;-67
2023/05/26 04:54:28;;;;;;;6.57;2.95;;;18.40;54.40;;;;;;5094393;28;20704;-66
2023/05/26 04:56:53;;;;;;;7.22;3.08;;;18.40;54.30;;;;;;5094518;28;20558;-65
2023/05/26 04:59:21;;;;;;;9.20;3.55;;;18.40;54.60;;;;;;5093478;28;20535;-66
2023/05/26 05:01:47;;;;;;;9.80;4.03;;;18.40;54.50;;;;;;5094498;28;20700;-66
2023/05/26 05:04:13;;;;;;;7.82;3.33;;;18.40;54.70;;;;;;5094312;28;20178;-66
2023/05/26 05:06:38;;;;;;;8.45;3.53;;;18.40;54.50;;;;;;5093724;28;20209;-66
2023/05/26 05:09:04;;;;;;;7.63;3.50;;;18.40;54.70;;;;;;5094291;28;20538;-66
2023/05/26 05:11:29;;;;;;;7.90;3.13;;;18.40;54.60;;;;;;5094314;28;20178;-65
2023/05/26 05:13:55;;;;;;;7.30;3.20;;;18.40;54.70;;;;;;5093299;28;20166;-65
2023/05/26 05:16:21;;;;;;;11.63;3.65;;;18.40;54.50;;;;;;5094135;28;20185;-65
2023/05/26 05:18:47;;;;;;;8.07;3.17;;;18.50;54.60;;;;;;5093788;28;20197;-65
2023/05/26 05:21:12;;;;;;;8.65;3.60;;;18.40;54.50;;;;;;5093754;28;20304;-66
2023/05/26 05:23:38;;;;;;;7.82;3.28;;;18.40;54.40;;;;;;5094122;28;20255;-65
2023/05/26 05:26:03;;;;;;;7.20;3.00;;;18.40;54.60;;;;;;5093386;28;20293;-66
2023/05/26 05:28:29;;;;;;;7.90;3.65;;;18.40;54.50;;;;;;5093863;28;20176;-66
2023/05/26 05:30:55;;;;;;;8.02;3.38;;;18.40;54.20;;;;;;5094214;28;20636;-67
2023/05/26 05:33:20;;;;;;;9.65;3.85;;;18.40;54.30;;;;;;5093076;28;20606;-67
2023/05/26 05:35:46;;;;;;;8.88;3.45;;;18.50;54.20;;;;;;5093732;28;20632;-66
2023/05/26 05:38:12;;;;;;;8.75;3.38;;;18.50;54.30;;;;;;5093545;28;20182;-66
2023/05/26 05:40:38;;;;;;;9.73;3.45;;;18.50;54.20;;;;;;5093079;28;20173;-66
2023/05/26 05:43:03;;;;;;;8.93;3.47;;;18.50;54.20;;;;;;5093647;28;20231;-66
2023/05/26 05:45:29;;;;;;;6.15;2.80;;;18.50;54.20;;;;;;5093503;28;20239;-66
2023/05/26 05:47:54;;;;;;;7.13;3.33;;;18.50;54.20;;;;;;5093142;28;20306;-67
2023/05/26 05:50:20;;;;;;;8.10;2.97;;;18.50;54.20;;;;;;5093376;28;20547;-67
2023/05/26 05:52:48;;;;;;;8.68;3.20;;;18.50;54.20;;;;;;5093690;28;20570;-67
2023/05/26 05:55:14;;;;;;;9.10;3.38;;;18.50;54.20;;;;;;5092517;28;20261;-66
2023/05/26 05:57:39;;;;;;;8.27;3.60;;;18.50;54.20;;;;;;5093359;28;20276;-65
2023/05/26 06:00:09;;;;;;;7.38;3.45;;;18.50;54.20;;;;;;5093293;28;20170;-67
2023/05/26 06:02:36;;;;;;;10.63;3.53;;;18.50;54.20;;;;;;5091744;28;20212;-66
2023/05/26 06:05:01;;;;;;;9.25;3.60;;;18.60;54.30;;;;;;5093397;28;20188;-67
2023/05/26 06:07:27;;;;;;;7.13;3.00;;;18.50;54.20;;;;;;5092864;28;20685;-66
2023/05/26 06:09:52;;;;;;;9.18;3.38;;;18.60;54.30;;;;;;5092260;28;20174;-65
2023/05/26 06:12:18;;;;;;;9.77;2.90;;;18.60;54.30;;;;;;5092785;28;20219;-67
2023/05/26 06:14:43;;;;;;;7.78;2.88;;;18.60;54.30;;;;;;5093256;28;20223;-65
2023/05/26 06:17:12;;;;;;;6.90;3.53;;;18.60;54.30;;;;;;5092321;28;20264;-65
2023/05/26 06:19:37;;;;;;;8.13;3.63;;;18.60;54.30;;;;;;5093262;28;20218;-65
2023/05/26 06:22:03;;;;;;;8.80;3.75;;;18.60;54.30;;;;;;5092938;28;20257;-65
2023/05/26 06:24:31;;;;;;;7.82;3.33;;;18.60;54.40;;;;;;5092445;28;20256;-65
2023/05/26 06:26:57;;;;;;;10.32;3.90;;;18.60;54.50;;;;;;5092880;28;20672;-65
2023/05/26 06:29:22;;;;;;;6.10;2.70;;;18.60;54.50;;;;;;5092046;28;20181;-66
2023/05/26 06:31:48;;;;;;;8.73;3.38;;;18.60;54.50;;;;;;5093056;28;20174;-67
2023/05/26 06:34:13;;;;;;;7.75;3.20;;;18.60;54.50;;;;;;5092646;28;20177;-67
2023/05/26 06:36:39;;;;;;;8.57;3.58;;;18.60;54.40;;;;;;5092012;28;20696;-66
2023/05/26 06:39:05;;;;;;;7.57;2.92;;;18.60;54.40;;;;;;5092521;28;20571;-67
2023/05/26 06:41:30;;;;;;;10.88;3.53;;;18.60;54.40;;;;;;5092689;28;20174;-66
2023/05/26 06:43:56;;;;;;;7.00;3.38;;;18.60;54.40;;;;;;5092283;28;20173;-67
2023/05/26 06:46:21;;;;;;;9.57;3.72;;;18.60;54.40;;;;;;5092298;28;20213;-67
2023/05/26 06:48:47;;;;;;;9.75;3.60;;;18.60;54.40;;;;;;5092864;28;20208;-67
2023/05/26 06:51:12;;;;;;;8.35;3.58;;;18.60;54.50;;;;;;5091890;28;20208;-67
2023/05/26 06:53:38;;;;;;;10.88;3.28;;;18.70;54.40;;;;;;5092747;28;20174;-67
2023/05/26 06:56:05;;;;;;;10.55;3.58;;;18.70;54.40;;;;;;5092732;28;20173;-66
2023/05/26 06:58:31;;;;;;;7.53;3.33;;;18.70;54.40;;;;;;5092222;28;20192;-67
2023/05/26 07:00:57;;;;;;;8.77;3.63;;;18.70;54.30;;;;;;5092854;28;20579;-67
2023/05/26 07:03:23;;;;;;;9.63;3.53;;;18.70;54.20;;;;;;5092640;28;20227;-67
2023/05/26 07:05:49;;;;;;;10.00;3.40;;;18.70;54.30;;;;;;5091424;28;20209;-67
2023/05/26 07:08:15;;;;;;;6.95;2.97;;;18.70;54.20;;;;;;5092261;28;20258;-67
2023/05/26 07:10:40;;;;;;;7.85;3.13;;;18.80;54.20;;;;;;5092620;28;20519;-66
2023/05/26 07:13:06;;;;;;;9.52;4.22;;;18.80;54.10;;;;;;5091509;28;20196;-73
2023/05/26 07:15:31;;;;;;;7.95;3.35;;;18.80;54.10;;;;;;5092646;28;20178;-72
2023/05/26 07:17:57;;;;;;;9.85;4.00;;;18.80;54.10;;;;;;5092656;28;20178;-71
2023/05/26 07:20:22;;;;;;;5.75;3.28;;;18.90;54.10;;;;;;5092476;28;20177;-73
2023/05/26 07:22:48;;;;;;;8.73;3.42;;;18.90;54.20;;;;;;5096348;28;20178;-72
2023/05/26 07:25:13;;;;;;;6.75;3.20;;;18.90;54.20;;;;;;5095866;28;20166;-76
2023/05/26 07:27:39;;;;;;;8.13;3.45;;;19.00;54.80;;;;;;5095923;28;20628;-73
2023/05/26 07:30:05;;;;;;;7.03;3.72;;;19.00;54.20;;;;;;5096177;28;20177;-75
2023/05/26 07:32:31;;;;;;;9.35;3.33;;;19.00;54.20;;;;;;5095494;28;20185;-73
2023/05/26 07:34:56;;;;;;;5.10;2.78;;;19.00;54.20;;;;;;5096243;28;20170;-73
2023/05/26 07:37:22;;;;;;;8.65;3.00;;;19.10;54.20;;;;;;5095753;28;20231;-73
2023/05/26 07:39:47;;;;;;;6.00;2.83;;;19.10;54.20;;;;;;5095421;28;20711;-70
2023/05/26 07:42:13;;;;;;;9.15;2.95;;;19.20;54.20;;;;;;5095689;28;20524;-74
2023/05/26 07:44:38;;;;;;;7.63;3.33;;;19.20;54.30;;;;;;5096017;28;20237;-73
2023/05/26 07:47:04;;;;;;;7.85;3.05;;;19.20;54.30;;;;;;5095075;28;20706;-77
2023/05/26 07:49:29;;;;;;;6.53;3.10;;;19.20;54.40;;;;;;5096011;28;20185;-75
2023/05/26 07:51:55;;;;;;;9.05;3.08;;;19.20;54.40;;;;;;5096557;28;20219;-76
2023/05/26 07:54:20;;;;;;;10.57;3.83;;;19.20;54.40;;;;;;5094748;28;20166;-73
2023/05/26 07:56:46;;;;;;;7.30;3.03;;;19.30;54.50;;;;;;5095975;28;20166;-73
2023/05/26 07:59:11;;;;;;;6.65;2.80;;;19.20;54.40;;;;;;5095746;28;20182;-75
2023/05/26 08:01:37;;;;;;;6.82;2.70;;;19.20;54.40;;;;;;5094939;28;20169;-74
2023/05/26 08:04:02;;;;;;;9.57;3.38;;;19.20;54.50;;;;;;5095778;28;20177;-76
2023/05/26 08:06:28;;;;;;;7.50;3.25;;;19.30;54.50;;;;;;5096051;28;20205;-73
2023/05/26 08:08:54;;;;;;;10.48;3.35;;;19.20;54.50;;;;;;5095973;28;20176;-76
2023/05/26 08:11:20;;;;;;;7.85;3.38;;;19.30;54.50;;;;;;5096384;28;20252;-74
2023/05/26 08:13:46;;;;;;;5.22;2.67;;;19.30;54.50;;;;;;5095565;28;20243;-72
2023/05/26 08:16:11;;;;;;;9.50;3.25;;;19.30;54.40;;;;;;5094518;28;20186;-74
2023/05/26 08:18:37;;;;;;;6.97;2.92;;;19.40;54.40;;;;;;5095241;28;20651;-73
2023/05/26 08:21:02;;;;;;;7.38;2.85;;;19.30;54.40;;;;;;5095141;28;20181;-75
2023/05/26 08:23:28;;;;;;;5.90;2.95;;;19.30;54.30;;;;;;5094027;28;20189;-71
2023/05/26 08:25:53;;;;;;;8.40;3.38;;;19.40;54.30;;;;;;5095340;28;20213;-72
2023/05/26 08:28:19;;;;;;;9.07;3.25;;;19.40;54.30;;;;;;5095060;28;20166;-74
2023/05/26 08:30:45;;;;;;;6.28;3.00;;;19.40;54.30;;;;;;5094240;28;20184;-75
2023/05/26 08:33:10;;;;;;;5.82;3.17;;;19.40;54.50;;;;;;5094748;28;20169;-73
2023/05/26 08:35:36;;;;;;;7.90;3.53;;;19.40;55.00;;;;;;5095158;28;20196;-71
2023/05/26 08:38:02;;;;;;;7.03;3.42;;;19.40;54.40;;;;;;5093947;28;20607;-72
2023/05/26 08:40:27;;;;;;;6.75;3.40;;;19.40;54.30;;;;;;5094723;28;20186;-73
2023/05/26 08:42:54;;;;;;;9.70;3.63;;;19.40;54.40;;;;;;5081518;28;20170;-73
2023/05/26 08:45:20;;;;;;;5.43;2.75;;;19.50;54.20;;;;;;5072551;28;20189;-75
2023/05/26 08:47:46;;;;;;;6.18;3.03;;;19.50;54.10;;;;;;5056393;28;20170;-73
2023/05/26 08:50:12;;;;;;;6.00;3.05;;;19.40;54.10;;;;;;5069396;28;20556;-75
2023/05/26 08:52:39;;;;;;;9.60;3.38;;;19.50;54.10;;;;;;5056234;28;20172;-73
2023/05/26 08:55:06;;;;;;;8.90;3.30;;;19.50;54.00;;;;;;5074022;28;20177;-73
2023/05/26 08:57:31;;;;;;;8.52;3.20;;;19.50;54.00;;;;;;5072067;28;20171;-75
2023/05/26 08:59:57;;;;;;;7.10;3.65;;;19.50;54.00;;;;;;5073931;28;20193;-72
2023/05/26 09:02:22;;;;;;;7.47;3.30;;;19.60;54.10;;;;;;5073473;28;20543;-68
2023/05/26 09:04:48;;;;;;;6.00;3.30;;;19.60;54.10;;;;;;5073137;28;20171;-66
2023/05/26 09:07:13;;;;;;;10.18;3.22;;;19.60;54.00;;;;;;5073338;28;20209;-67
2023/05/26 09:09:39;;;;;;;6.47;3.25;;;19.60;54.00;;;;;;5074320;28;20240;-66
2023/05/26 09:12:10;;;;;;;11.13;3.75;;;19.70;54.10;;;;;;5073004;28;20581;-66
2023/05/26 09:14:35;;;;;;;5.97;3.30;;;19.70;54.10;;;;;;5074167;28;20198;-65
2023/05/26 09:17:05;;;;;;;7.35;2.95;;;19.70;54.10;;;;;;5074063;28;20217;-66
2023/05/26 09:19:31;;;;;;;5.45;3.10;;;19.70;54.10;;;;;;5073061;28;20173;-66
2023/05/26 09:21:57;;;;;;;7.78;3.08;;;19.70;54.10;;;;;;5073973;28;20174;-65
2023/05/26 09:24:27;;;;;;;8.52;3.45;;;19.70;54.10;;;;;;5072129;28;20167;-64
2023/05/26 09:26:52;;;;;;;6.55;2.58;;;19.80;54.10;;;;;;5073167;28;20210;-65
2023/05/26 09:29:18;;;;;;;6.22;2.95;;;19.80;54.20;;;;;;5073211;28;20170;-65
2023/05/26 09:31:45;;;;;;;6.90;3.08;;;19.80;54.00;;;;;;5073595;28;20174;-66
2023/05/26 09:34:11;;;;;;;7.63;3.00;;;19.90;54.10;;;;;;5072679;28;20182;-66
2023/05/26 09:36:37;;;;;;;6.70;3.13;;;19.90;54.00;;;;;;5073327;28;20291;-65
2023/05/26 09:39:10;;;;;;;6.20;3.00;;;19.90;54.00;;;;;;5072955;28;20181;-65
2023/05/26 09:41:43;;;;;;;7.28;3.28;;;19.90;54.00;;;;;;5073695;28;20175;-67
2023/05/26 09:44:12;;;;;;;10.18;3.55;;;19.90;54.10;;;;;;5072501;28;20296;-69
2023/05/26 09:46:38;;;;;;;5.18;2.58;;;19.90;54.10;;;;;;5072604;28;20677;-71
2023/05/26 09:49:14;;;;;;;6.20;3.28;;;19.90;54.10;;;;;;5073365;28;20591;-68
2023/05/26 09:51:44;;;;;;;8.68;3.50;;;19.90;54.10;;;;;;5073524;28;20187;-72
2023/05/26 09:54:13;;;;;;;8.25;2.80;;;19.90;54.20;;;;;;5072458;28;20174;-72
2023/05/26 09:56:58;;;;;;;6.57;2.75;;;19.90;54.20;;;;;;5073504;28;20220;-70
2023/05/26 09:59:32;;;;;;;5.65;2.53;;;19.90;54.20;;;;;;5072387;28;20179;-68
2023/05/26 10:01:57;;;;;;;6.70;3.15;;;20.00;54.20;;;;;;5072571;28;20174;-71
2023/05/26 10:04:23;;;;;;;5.53;2.97;;;20.00;54.20;;;;;;5072775;28;20171;-71
2023/05/26 10:06:49;;;;;;;5.53;2.38;;;20.00;54.80;;;;;;5071935;28;20677;-71
2023/05/26 10:09:14;;;;;;;6.18;2.67;;;20.00;54.10;;;;;;5072064;28;20392;-70
2023/05/26 10:11:41;;;;;;;9.88;2.78;;;20.00;54.20;;;;;;5073027;28;20174;-69
2023/05/26 10:14:07;;;;;;;8.27;3.25;;;20.00;54.10;;;;;;5072785;28;20174;-69
2023/05/26 10:16:32;;;;;;;6.72;2.78;;;20.20;54.30;;;;;;5072569;28;20201;-71
2023/05/26 10:18:58;;;;;;;8.63;2.85;;;20.10;54.20;;;;;;5071786;28;20178;-69
2023/05/26 10:21:27;;;;;;;5.40;2.75;;;20.10;54.20;;;;;;5072032;28;20182;-70
2023/05/26 10:24:08;;;;;;;4.68;2.67;;;20.10;54.20;;;;;;5071655;28;20179;-69
2023/05/26 10:27:03;;;;;;;5.05;2.65;;;20.10;54.20;;;;;;5071693;28;20206;-70
2023/05/26 10:29:46;;;;;;;5.90;2.72;;;20.10;54.10;;;;;;5072048;28;20170;-70
2023/05/26 10:32:40;;;;;;;6.22;2.95;;;20.10;54.20;;;;;;5071514;28;20585;-72
2023/05/26 10:35:23;;;;;;;8.25;3.15;;;20.10;54.20;;;;;;5072591;28;20177;-65
2023/05/26 10:37:49;;;;;;;5.40;2.70;;;20.10;54.30;;;;;;5072663;28;20707;-64
2023/05/26 10:40:33;;;;;;;7.75;2.88;;;20.20;54.40;;;;;;5072343;28;20262;-64
2023/05/26 10:43:24;;;;;;;6.53;2.47;;;20.10;54.40;;;;;;5071796;28;20185;-64
2023/05/26 10:45:54;;;;;;;6.78;3.00;;;20.20;54.50;;;;;;5071428;28;20566;-65
2023/05/26 10:48:21;;;;;;;4.75;2.50;;;20.20;54.50;;;;;;5072516;28;20508;-66
2023/05/26 10:50:59;;;;;;;7.20;2.97;;;20.20;54.50;;;;;;5071832;28;20656;-71
2023/05/26 10:53:45;;;;;;;6.75;2.97;;;20.20;54.50;;;;;;5072199;28;20162;-73
2023/05/26 10:56:13;;;;;;;7.45;2.95;;;20.20;54.40;;;;;;5076340;28;20189;-73
2023/05/26 10:58:45;;;;;;;7.97;3.15;;;20.20;54.40;;;;;;5076107;28;20174;-72
2023/05/26 11:01:12;;;;;;;7.63;2.85;;;20.30;54.30;;;;;;5076388;28;20175;-74
2023/05/26 11:03:47;;;;;;;8.55;3.25;;;20.20;54.30;;;;;;5075943;28;20182;-74
2023/05/26 11:06:16;;;;;;;8.13;3.10;;;20.20;54.20;;;;;;5076441;28;20213;-76
2023/05/26 11:08:48;;;;;;;6.07;2.78;;;20.30;54.30;;;;;;5076772;28;20171;-74
2023/05/26 11:11:30;;;;;;;7.75;3.00;;;20.30;54.30;;;;;;5075463;28;20182;-72
2023/05/26 11:14:00;;;;;;;7.93;3.05;;;20.30;54.20;;;;;;5075612;28;20235;-72
2023/05/26 11:16:25;;;;;;;8.02;3.00;;;20.30;54.20;;;;;;5074911;28;20648;-72
2023/05/26 11:19:00;;;;;;;5.47;2.75;;;20.30;54.20;;;;;;5075887;28;20177;-72
2023/05/26 11:21:27;;;;;;;7.22;3.30;;;20.30;54.20;;;;;;5074768;28;20553;-72
2023/05/26 11:23:56;;;;;;;6.47;3.05;;;20.30;54.20;;;;;;5076367;28;20547;-72
2023/05/26 11:26:22;;;;;;;5.70;2.50;;;20.30;54.10;;;;;;5075126;28;20214;-72
2023/05/26 11:28:47;;;;;;;5.82;3.00;;;20.30;54.10;;;;;;5076084;28;20185;-73
2023/05/26 11:31:14;;;;;;;6.20;2.67;;;20.30;54.20;;;;;;5075929;28;20221;-73
2023/05/26 11:33:41;;;;;;;8.90;3.13;;;20.30;54.20;;;;;;5075560;28;20178;-71
2023/05/26 11:36:12;;;;;;;8.40;2.97;;;20.40;54.20;;;;;;5075705;28;20309;-72
2023/05/26 11:38:38;;;;;;;6.50;3.30;;;20.40;54.20;;;;;;5075334;28;20531;-72
2023/05/26 11:41:04;;;;;;;5.78;2.75;;;20.40;54.20;;;;;;5076129;28;20257;-73
2023/05/26 11:43:30;;;;;;;7.00;2.53;;;20.40;54.20;;;;;;5075786;28;20245;-73
2023/05/26 11:46:02;;;;;;;6.32;2.97;;;20.40;54.20;;;;;;5075202;28;20249;-74
2023/05/26 11:48:39;;;;;;;4.88;3.03;;;20.40;54.20;;;;;;5075610;28;20170;-73
2023/05/26 11:51:15;;;;;;;5.43;2.70;;;20.40;54.20;;;;;;5075636;28;20185;-74
2023/05/26 11:53:42;;;;;;;6.43;3.30;;;20.40;54.20;;;;;;5075006;28;20189;-72
2023/05/26 11:56:12;;;;;;;6.20;2.90;;;20.40;54.20;;;;;;5075344;28;20560;-73
2023/05/26 11:58:41;;;;;;;7.40;3.22;;;20.40;54.80;;;;;;5075739;28;20284;-73
2023/05/26 12:01:07;;;;;;;4.68;2.50;;;20.50;54.20;;;;;;5074815;28;20178;-73
2023/05/26 12:03:36;;;;;;;6.80;3.10;;;20.40;54.20;;;;;;5075628;28;20174;-74
2023/05/26 12:06:16;;;;;;;6.32;2.65;;;20.50;54.20;;;;;;5074633;28;20210;-75
2023/05/26 12:08:48;;;;;;;7.57;2.90;;;20.50;54.20;;;;;;5074989;28;20170;-72
2023/05/26 12:11:17;;;;;;;6.20;2.97;;;20.50;54.10;;;;;;5075062;28;20594;-74
2023/05/26 12:13:43;;;;;;;6.07;2.83;;;20.50;54.10;;;;;;5075153;28;20224;-72
2023/05/26 12:16:22;;;;;;;4.68;2.63;;;20.50;54.10;;;;;;5074533;28;20638;-73
2023/05/26 12:18:51;;;;;;;5.57;2.72;;;20.60;54.00;;;;;;5073982;28;20249;-72
2023/05/26 12:21:16;;;;;;;5.75;2.75;;;20.60;54.00;;;;;;5074328;28;20170;-73
2023/05/26 12:23:42;;;;;;;5.22;2.50;;;20.60;54.00;;;;;;5075365;28;20268;-72
2023/05/26 12:26:25;;;;;;;4.72;3.05;;;20.60;54.00;;;;;;5073692;28;20623;-73
2023/05/26 12:29:13;;;;;;;6.18;2.88;;;20.60;54.00;;;;;;5074583;28;20225;-73
2023/05/26 12:31:49;;;;;;;5.45;2.47;;;20.60;53.90;;;;;;5075241;28;20182;-75
2023/05/26 12:34:22;;;;;;;6.70;2.65;;;20.70;53.90;;;;;;5074774;28;20209;-76
2023/05/26 12:36:48;;;;;;;6.25;2.83;;;20.70;53.90;;;;;;5074151;28;20234;-73
2023/05/26 12:39:15;;;;;;;7.35;3.20;;;20.70;53.90;;;;;;5074512;28;20174;-73
2023/05/26 12:41:41;;;;;;;6.85;2.95;;;20.70;53.80;;;;;;5074737;28;20249;-72
2023/05/26 12:44:07;;;;;;;8.68;3.35;;;20.70;53.80;;;;;;5073933;28;20223;-73
2023/05/26 12:46:32;;;;;;;4.78;2.53;;;20.70;53.80;;;;;;5074753;28;20210;-75